METAR Data
IDs: Format: Raw Decoded Include TAF

Data at: 1909 UTC 07 Dec 2021

KS33 071855Z AUTO 00000KT 10SM OVC040 08/05 A3007 RMK AO2
KS33 071835Z AUTO 14003KT 10SM BKN040 07/04 A3007 RMK AO2
KS33 071815Z AUTO 15006KT 10SM BKN042 06/05 A3008 RMK AO2
KS33 071755Z AUTO 14006KT 10SM OVC042 05/04 A3008 RMK AO2
KS33 071735Z AUTO 14007KT 10SM OVC040 04/03 A3008 RMK AO2
KS33 071715Z AUTO 10SM OVC038 03/03 A3009 RMK AO2
KS33 071655Z AUTO 00000KT 10SM OVC038 02/02 A3009 RMK AO2
KS33 071635Z AUTO 00000KT 10SM OVC038 02/02 A3008 RMK AO2
KS33 071615Z AUTO 00000KT 10SM OVC040 02/02 A3007 RMK AO2
KS33 071555Z AUTO 08003KT 5SM BR OVC042 01/01 A3006 RMK AO2
KS33 071455Z AUTO 00000KT 1/4SM FG OVC002 00/00 A3005 RMK AO2
KS33 071435Z AUTO 00000KT 4SM BR OVC002 00/00 A3004 RMK AO2
KS33 071415Z AUTO 00000KT 3/4SM BR OVC002 00/00 A3003 RMK AO2
KS33 071355Z AUTO 17003KT 3/4SM BR OVC002 00/00 A3004 RMK AO2
KS33 071335Z AUTO 15004KT 1/4SM FG OVC002 00/00 A3003 RMK AO2
KS33 071315Z AUTO 00000KT 1/2SM FZFG OVC002 00/00 A3005 RMK AO2
KS33 071255Z AUTO 00000KT 1/4SM FZFG OVC002 M01/M01 A3005 RMK AO2
KS33 071235Z AUTO 00000KT 1/4SM FZFG OVC002 M01/M02 A3003 RMK AO2
KS33 071215Z AUTO 00000KT 1/4SM FZFG OVC002 M01/M02 A3003 RMK AO2
KS33 071155Z AUTO 00000KT 1/4SM FZFG OVC002 M01/M01 A3002 RMK AO2
KS33 071135Z AUTO 31003KT 1/2SM FZFG BKN002 OVC031 M01/M02 A3002 RMK AO2
KS33 071115Z AUTO 35006KT 1/4SM FZFG OVC002 M01/M01 A3002 RMK AO2
KS33 071055Z AUTO 02003KT 1/4SM FZFG OVC002 M01/M02 A3001 RMK AO2
KS33 071035Z AUTO 00000KT 1/4SM FZFG OVC002 00/M01 A3001 RMK AO2
KS33 071015Z AUTO 00000KT 1/2SM FZFG VV005 M01/M01 A3000 RMK AO2
KS33 070955Z AUTO 06005KT 1SM BR VV007 00/00 A3000 RMK AO2
KS33 070935Z AUTO 02004KT 1/2SM FG BKN002 00/00 A3000 RMK AO2
KS33 070915Z AUTO 02003KT 1/4SM FZFG OVC002 00/00 A3000 RMK AO2
KS33 070715Z AUTO 00000KT 10SM CLR 00/00 A3000 RMK AO2
KS33 070655Z AUTO 00000KT 10SM CLR 01/00 A2999 RMK AO2
KS33 070635Z AUTO 00000KT 10SM CLR 02/01 A2999 RMK AO2
KS33 070615Z AUTO 01003KT 10SM CLR 02/01 A2999 RMK AO2
KS33 070555Z AUTO 00000KT 10SM CLR 02/01 A2999 RMK AO2
KS33 070535Z AUTO 07003KT 10SM CLR 01/00 A2999 RMK AO2
KS33 070455Z AUTO 00000KT 10SM SCT046 02/01 A2999 RMK AO2
KS33 070435Z AUTO 00000KT 10SM SCT046 03/02 A2999 RMK AO2
KS33 070415Z AUTO 29003KT 10SM SCT048 03/02 A2999 RMK AO2
KS33 070355Z AUTO 00000KT 10SM SCT050 03/02 A2998 RMK AO2
KS33 070335Z AUTO 00000KT 10SM SCT050 05/03 A2998 RMK AO2
KS33 070315Z AUTO 17004KT 10SM BKN050 06/04 A2998 RMK AO2
KS33 070255Z AUTO 16004KT 10SM OVC060 07/05 A2998 RMK AO2
KS33 070235Z AUTO 16005KT 10SM OVC060 07/05 A2998 RMK AO2
KS33 070215Z AUTO 17006KT 10SM OVC060 07/05 A2998 RMK AO2
KS33 070155Z AUTO 14006KT 10SM OVC060 07/05 A2999 RMK AO2
KS33 070135Z AUTO 14006KT 10SM BKN060 BKN075 07/04 A2998 RMK AO2
KS33 070115Z AUTO 15008KT 10SM BKN065 BKN080 07/05 A2998 RMK AO2
KS33 070055Z AUTO 15008KT 10SM SCT065 SCT120 07/05 A2998 RMK AO2
KS33 070015Z AUTO 13007KT 10SM SCT060 SCT075 OVC100 07/05 A2998 RMK AO2
KS33 062355Z AUTO 15007KT 10SM SCT065 OVC090 07/05 A2998 RMK AO2
KS33 062335Z AUTO 15007KT 10SM BKN090 BKN110 08/05 A2998 RMK AO2
KS33 062315Z AUTO 16007KT 10SM OVC100 08/05 A2998 RMK AO2
KS33 062255Z AUTO 15009KT 10SM BKN080 OVC100 07/05 A2998 RMK AO2
KS33 062235Z AUTO 14009KT 10SM SCT060 BKN080 BKN095 07/05 A2998 RMK AO2
KS33 062215Z AUTO 15008KT 10SM SCT075 OVC095 07/05 A2999 RMK AO2
KS33 062155Z AUTO 14010KT 10SM -RA BKN060 OVC085 07/05 A2998 RMK AO2 P0001
KS33 062135Z AUTO 14007KT 10SM RA BKN060 OVC075 08/05 A2999 RMK AO2
KS33 062115Z AUTO 15007KT 10SM OVC090 08/04 A3000 RMK AO2
KS33 062055Z AUTO 16009KT 10SM SCT055 SCT080 OVC090 08/04 A2999 RMK AO2
KS33 062035Z AUTO 16011G14KT 10SM OVC100 09/03 A3000 RMK AO2
KS33 062015Z AUTO 17009KT 10SM OVC100 08/04 A3000 RMK AO2
KS33 061955Z AUTO 16011KT 10SM OVC110 08/03 A3000 RMK AO2
KS33 061935Z AUTO 17011KT 10SM SCT065 BKN090 OVC120 07/03 A3001 RMK AO2
KS33 061915Z AUTO 17013KT 10SM OVC090 07/03 A3003 RMK AO2
KS33 061855Z AUTO 17012KT 10SM SCT060 SCT070 OVC100 07/03 A3003 RMK AO2
KS33 061835Z AUTO 16010KT 10SM BKN060 BKN070 OVC100 07/03 A3005 RMK AO2
KS33 061815Z AUTO 15009KT 10SM BKN060 BKN070 BKN120 07/03 A3006 RMK AO2
KS33 061715Z AUTO 17007KT 10SM RA OVC070 03/02 A3008 RMK AO2
KS33 061655Z AUTO 19003KT 10SM -RA OVC070 03/01 A3009 RMK AO2 P0001
KS33 061635Z AUTO 19004KT 10SM -RA OVC070 03/00 A3010 RMK AO2
KS33 061555Z AUTO 20005KT 10SM -RA BKN060 OVC070 03/00 A3010 RMK AO2
KS33 061535Z AUTO 22006KT 10SM SCT048 BKN070 OVC110 03/00 A3010 RMK AO2
KS33 061515Z AUTO 13004KT 10SM SCT048 SCT080 BKN120 02/M01 A3009 RMK AO2
KS33 061455Z AUTO 18009KT 10SM SCT110 02/M01 A3010 RMK AO2
KS33 061435Z AUTO 16006KT 10SM SCT100 BKN120 01/M02 A3012 RMK AO2
KS33 061415Z AUTO 14003KT 10SM OVC100 01/M02 A3014 RMK AO2
KS33 061355Z AUTO 15004KT 10SM OVC110 01/M02 A3014 RMK AO2
KS33 061335Z AUTO 14003KT 10SM SCT046 OVC120 01/M02 A3016 RMK AO2
KS33 061315Z AUTO 00000KT 10SM BKN048 BKN090 OVC120 00/M02 A3017 RMK AO2
KS33 061255Z AUTO 00000KT 10SM SCT048 BKN065 OVC120 00/M03 A3019 RMK AO2
KS33 061235Z AUTO 00000KT 10SM SCT060 SCT075 OVC085 00/M03 A3020 RMK AO2
KS33 061215Z AUTO 16003KT 10SM SCT065 OVC085 00/M03 A3020 RMK AO2
KS33 061155Z AUTO 00000KT 10SM SCT065 BKN075 OVC085 00/M03 A3022 RMK AO2
KS33 061135Z AUTO 00000KT 10SM OVC080 01/M03 A3023 RMK AO2
KS33 061115Z AUTO 00000KT 10SM SCT060 OVC070 01/M02 A3024 RMK AO2
KS33 061055Z AUTO 00000KT 10SM SCT048 OVC065 00/M03 A3026 RMK AO2
KS33 061035Z AUTO 00000KT 10SM OVC065 00/M02 A3027 RMK AO2
KS33 061015Z AUTO 00000KT 10SM BKN065 OVC075 00/M03 A3027 RMK AO2
KS33 060955Z AUTO 11003KT 10SM OVC085 00/M03 A3027 RMK AO2
KS33 060935Z AUTO 00000KT 10SM OVC070 00/M03 A3029 RMK AO2
KS33 060855Z AUTO 00000KT 10SM OVC090 00/M03 A3029 RMK AO2
KS33 060835Z AUTO 00000KT 10SM OVC100 00/M03 A3029 RMK AO2
KS33 060815Z AUTO 13003KT 10SM SCT080 OVC110 00/M03 A3031 RMK AO2
KS33 060755Z AUTO 12003KT 10SM BKN090 BKN110 00/M03 A3031 RMK AO2
KS33 060735Z AUTO 00000KT 10SM SCT100 M01/M03 A3033 RMK AO2
KS33 060715Z AUTO 00000KT 10SM CLR 00/M04 A3032 RMK AO2